Thunder radar more information blitzortung!


Radar de pluja more information rain snow radar


Visita la nostra xarxa de llocs de meteo:

Template documentation
and downloads

And another site



No particular awareness of the weather is required.    There are no Weather-warnings

Pagina Historial Weather Underground text

Diari Resum Novembre 25, 2017 Unitats:  Imperial    Mètric   Tant
« Previous Dia
SegĂźent Dia »
Diari Setmana Mensual Anual Personalitzada
  Maxima: Minima: Media:
Temperatura: 61.3 °F 41.5 °F 53.8 °F
Punt de rosada: 46.6 °F 25 °F 39.4 °F
Humitat: 66 % 49 % 58 %
Wind Speed: 13.8 mph 0 mph 2.8 mph
RĂ fegues de vent: 13.8 mph - -
Vent:- - SW
Pression baro: 30.3 in 30 in -
Precipitacions: 0 in    
Historical Graphs
 
 
Dades de taula per Novembre 25, 2017
Temps Temperatura Punt de rosada Pression baro Vent Wind Speed RĂ fegues de vent Humitat Rainfall Rate (Hourly)
00:00 49.3 °F 37.2 °F 30 in Calm   2 mph 63 % 0 in
00:04 55.2 °F 37.4 °F 30.1 in SW 1.2 mph   51 % 0 in
00:10 49.3 °F 37.2 °F 30 in NNW 2 mph 3 mph 63 % 0 in
00:20 48.2 °F 36.7 °F 30 in North 1 mph 2 mph 64 % 0 in
00:30 48.9 °F 36.9 °F 30 in NNE 2 mph 3 mph 63 % 0 in
00:40 49.3 °F 37.2 °F 30 in SW 1 mph 2 mph 63 % 0 in
00:50 50.2 °F 38.1 °F 30 in SW 2 mph 3 mph 63 % 0 in
01:00 51.3 °F 39 °F 30 in WSW 3 mph 3 mph 63 % 0 in
01:10 51.6 °F 39.4 °F 30 in WSW 2 mph 2 mph 63 % 0 in
01:20 50.9 °F 38.7 °F 30 in Calm   1 mph 63 % 0 in
01:30 50.4 °F 38.1 °F 30 in SW 1 mph 2 mph 63 % 0 in
01:40 50.2 °F 38.1 °F 30 in WSW 1 mph 2 mph 63 % 0 in
01:50 50.4 °F 38.1 °F 30 in WSW 1 mph 2 mph 63 % 0 in
02:00 51.3 °F 39 °F 30 in WSW 2 mph 3 mph 63 % 0 in
02:10 51.8 °F 39.2 °F 30 in SW 2 mph 2 mph 62 % 0 in
08:11 52 °F 39.4 °F 30 in WSW 2.3 mph 2.3 mph 62 % 0 in
08:12 52 °F 39.4 °F 30 in West 2.4 mph 2.4 mph 62 % 0 in
08:13 52 °F 39.4 °F 30 in West 2.3 mph 2.3 mph 62 % 0 in
08:18 52.7 °F 39.9 °F 30 in West 2.3 mph 2.3 mph 62 % 0 in
08:23 53.2 °F 40.1 °F 30 in WNW 1.2 mph 1.2 mph 61 % 0 in
08:28 53.2 °F 40.1 °F 30 in SW 2.2 mph   61 % 0 in
08:33 52.2 °F 39 °F 30 in West 2.3 mph 2.3 mph 61 % 0 in
08:38 52 °F 38.8 °F 30 in West 2.6 mph 2.6 mph 61 % 0 in
08:43 52.9 °F 39.7 °F 30 in WSW 3.5 mph 3.5 mph 61 % 0 in
08:53 54.9 °F 41.2 °F 30 in West 2.4 mph 2.4 mph 60 % 0 in
08:58 54.7 °F 41.2 °F 30 in SW 2.4 mph 2.4 mph 60 % 0 in
09:03 53.6 °F 39.9 °F 30.1 in SW 2.3 mph 2.3 mph 60 % 0 in
09:08 52.7 °F 39.2 °F 30.1 in WSW 2.4 mph 2.4 mph 60 % 0 in
09:13 52.7 °F 39.2 °F 30.1 in WSW 2.6 mph 2.6 mph 60 % 0 in
09:18 52.9 °F 39.7 °F 30.1 in Calm     61 % 0 in
09:23 53.4 °F 40.3 °F 30.1 in WNW 2.4 mph 2.4 mph 61 % 0 in
09:28 53.8 °F 40.6 °F 30.1 in SW 2.6 mph 2.6 mph 61 % 0 in
09:33 52.7 °F 39.6 °F 30.1 in ENE 2.3 mph 2.3 mph 61 % 0 in
09:38 51.6 °F 38.7 °F 30.1 in ENE 1.2 mph 1.2 mph 61 % 0 in
09:43 51.6 °F 39 °F 30.1 in ENE 1.2 mph   62 % 0 in
09:48 51.1 °F 38.5 °F 30.1 in ENE 2.6 mph 2.6 mph 62 % 0 in
09:53 50.5 °F 38.5 °F 30.1 in ENE 3.5 mph 3.5 mph 63 % 0 in
09:58 50.2 °F 38.1 °F 30.1 in ENE 1.2 mph 1.2 mph 63 % 0 in
10:03 50 °F 37.9 °F 30.1 in SW 2.3 mph 2.3 mph 63 % 0 in
10:08 49.5 °F 37.4 °F 30.1 in WSW 3.5 mph 3.5 mph 63 % 0 in
10:13 49.3 °F 37.2 °F 30.1 in WSW 3.6 mph 3.6 mph 63 % 0 in
10:18 49.6 °F 37.9 °F 30 in SW 3.5 mph 3.5 mph 64 % 0 in
10:23 50 °F 38.7 °F 30 in WSW 2.4 mph   65 % 0 in
10:28 50.7 °F 39.4 °F 30 in West 2.3 mph 2.3 mph 65 % 0 in
10:33 52.3 °F 40.5 °F 30.1 in WNW 1.2 mph 1.4 mph 64 % 0 in
10:38 53.6 °F 41.7 °F 30.1 in West 2.3 mph 2.3 mph 64 % 0 in
10:43 54.1 °F 41.7 °F 30.1 in WNW 1.2 mph   63 % 0 in
10:48 53.8 °F 41.9 °F 30.1 in Calm     64 % 0 in
10:53 53.4 °F 41.5 °F 30.1 in West 1.4 mph   64 % 0 in
10:58 53.8 °F 41.9 °F 30.1 in WNW 1.2 mph   64 % 0 in
11:03 54.3 °F 42.1 °F 30.1 in SW 2.3 mph 2.3 mph 63 % 0 in
11:08 54.1 °F 42.3 °F 30.1 in SW 3.5 mph 3.5 mph 64 % 0 in
11:13 54 °F 41.5 °F 30.1 in WSW 3.5 mph 3.5 mph 63 % 0 in
11:18 54 °F 41.5 °F 30.1 in SW 2.4 mph 2.4 mph 63 % 0 in
11:23 54.7 °F 41.9 °F 30.1 in South 3.5 mph 3.5 mph 62 % 0 in
11:29 55 °F 42.3 °F 30.1 in South 5.8 mph 5.8 mph 62 % 0 in
11:34 55.2 °F 42.4 °F 30.1 in SW 4 mph 4 mph 62 % 0 in
11:39 55.6 °F 42.8 °F 30.1 in West 4.6 mph 4.6 mph 62 % 0 in
11:44 55.9 °F 42.6 °F 30.1 in WNW 1.2 mph 1.2 mph 61 % 0 in
11:49 56.1 °F 42.8 °F 30.1 in SW 2.3 mph 2.3 mph 61 % 0 in
11:54 56.5 °F 43.2 °F 30.1 in WNW 2.2 mph 2.2 mph 61 % 0 in
11:59 57 °F 43.3 °F 30.1 in WSW 3.3 mph 3.3 mph 60 % 0 in
12:04 57 °F 43.3 °F 30.1 in West 3.5 mph 3.5 mph 60 % 0 in
12:09 57 °F 43.3 °F 30.1 in NNW 2.3 mph 2.3 mph 60 % 0 in
12:14 57.2 °F 43.3 °F 30.1 in ESE 3.5 mph 3.5 mph 60 % 0 in
12:19 57.4 °F 43.5 °F 30.1 in WSW 4.6 mph 4.6 mph 60 % 0 in
12:24 57.4 °F 43.5 °F 30.1 in SW 3.5 mph 3.5 mph 60 % 0 in
12:29 57.4 °F 43.5 °F 30.1 in East 2.6 mph 2.6 mph 60 % 0 in
12:30 57.4 °F 43.5 °F 30.1 in East 3.5 mph 3.5 mph 60 % 0 in
12:35 57.6 °F 43.9 °F 30.1 in ESE 2.6 mph 2.6 mph 60 % 0 in
12:40 57.6 °F 43.9 °F 30.1 in West 5.6 mph 5.6 mph 60 % 0 in
12:45 57.6 °F 43.9 °F 30.1 in WNW 3.5 mph 3.5 mph 60 % 0 in
12:50 57.7 °F 43.9 °F 30.1 in WSW 2.3 mph 2.3 mph 60 % 0 in
12:52 57.7 °F 43.9 °F 30.1 in WSW 3.5 mph 3.6 mph 60 % 0 in
12:57 57.6 °F 44.2 °F 30.1 in West 4.6 mph 4.6 mph 61 % 0 in
13:02 57.6 °F 44.2 °F 30.1 in SSW 3.5 mph 3.5 mph 61 % 0 in
13:07 57.6 °F 44.2 °F 30.1 in West 3.5 mph 3.5 mph 61 % 0 in
13:12 57.9 °F 44.4 °F 30.1 in SW 2.9 mph 2.9 mph 61 % 0 in
13:22 59 °F 45.7 °F 30.1 in WSW 3.8 mph 3.8 mph 61 % 0 in
13:27 59.7 °F 46.2 °F 30.1 in WNW 4.7 mph 4.7 mph 61 % 0 in
13:32 60.1 °F 46 °F 30.1 in West 4.3 mph 4.3 mph 60 % 0 in
13:37 60.4 °F 46.6 °F 30.1 in WNW 3.5 mph 3.5 mph 60 % 0 in
13:42 60.3 °F 46.2 °F 30.1 in WSW 4.6 mph 4.6 mph 60 % 0 in
13:47 60.1 °F 45.7 °F 30.1 in WNW 4.6 mph 4.6 mph 59 % 0 in
13:52 59.9 °F 45.5 °F 30.1 in West 5.8 mph 5.8 mph 59 % 0 in
13:57 59.9 °F 45.5 °F 30.1 in SW 2.3 mph 2.4 mph 59 % 0 in
14:02 60.1 °F 45.7 °F 30.1 in SW 2.9 mph 2.9 mph 59 % 0 in
14:07 60.1 °F 45.7 °F 30.1 in West 3.5 mph 3.5 mph 59 % 0 in
14:12 60.1 °F 45.7 °F 30.1 in West 2.6 mph 2.6 mph 59 % 0 in
14:17 59.9 °F 45.5 °F 30.1 in WSW 1.4 mph 1.4 mph 59 % 0 in
14:22 60.1 °F 45.7 °F 30.1 in SW 2.3 mph 2.3 mph 59 % 0 in
14:27 60.3 °F 45.9 °F 30.1 in SW 2.4 mph 2.4 mph 59 % 0 in
14:28 60.3 °F 45.9 °F 30.1 in SW 3.1 mph 3.1 mph 59 % 0 in
14:33 60.3 °F 45.9 °F 30.1 in NW 2.3 mph 2.3 mph 59 % 0 in
14:38 60.1 °F 45.7 °F 30.1 in NW 1.4 mph   59 % 0 in
14:43 60.1 °F 45.7 °F 30.1 in North 2.3 mph 2.3 mph 59 % 0 in
14:48 60.3 °F 45.9 °F 30.1 in ENE 2.3 mph 2.3 mph 59 % 0 in
14:53 60.3 °F 45.9 °F 30.1 in ESE 3.6 mph 3.6 mph 59 % 0 in
14:58 60.3 °F 45.3 °F 30.1 in NE 1.2 mph   58 % 0 in
15:03 60.3 °F 45.3 °F 30.1 in SE 2.3 mph 2.3 mph 58 % 0 in
15:08 60.1 °F 45.1 °F 30.1 in East 2.3 mph 2.4 mph 58 % 0 in
15:13 60.1 °F 45.1 °F 30.1 in East 2.3 mph 2.3 mph 58 % 0 in
15:18 59.9 °F 45.1 °F 30.1 in ESE 2.6 mph 2.6 mph 58 % 0 in
15:23 59.7 °F 45 °F 30.1 in ESE 1.2 mph 1.2 mph 58 % 0 in
15:28 60.1 °F 45.1 °F 30.1 in Calm     58 % 0 in
15:33 60.3 °F 45.3 °F 30.1 in Calm     58 % 0 in
15:38 60.6 °F 45.9 °F 30.1 in Calm     58 % 0 in
15:43 60.6 °F 45.9 °F 30.1 in SSE 2.3 mph 2.3 mph 58 % 0 in
15:46 61 °F 46 °F 30.1 in SSE 1.2 mph   58 % 0 in
15:51 61.3 °F 46.4 °F 30.1 in ESE 2.3 mph 2.3 mph 58 % 0 in
15:56 60.8 °F 45.5 °F 30.1 in ENE 3.5 mph 3.5 mph 57 % 0 in
16:01 60.8 °F 45.5 °F 30.1 in ENE 3.5 mph 3.5 mph 57 % 0 in
16:06 60.8 °F 45.9 °F 30.1 in ESE 2.3 mph 2.3 mph 58 % 0 in
16:11 60.8 °F 45.5 °F 30.1 in ESE 3.5 mph 3.5 mph 57 % 0 in
16:16 60.6 °F 45.9 °F 30.1 in East 2.3 mph 2.3 mph 58 % 0 in
16:21 60.4 °F 45.7 °F 30.1 in East 2.6 mph 2.6 mph 58 % 0 in
16:26 60.3 °F 45.3 °F 30.1 in SE 2.3 mph 2.3 mph 58 % 0 in
16:31 60.3 °F 45.3 °F 30.1 in ESE 4.6 mph 4.6 mph 58 % 0 in
16:36 60.1 °F 44.8 °F 30.1 in ESE 3.5 mph 3.5 mph 57 % 0 in
16:41 60.1 °F 44.8 °F 30.1 in SE 2.3 mph 2.4 mph 57 % 0 in
16:46 59.7 °F 44.4 °F 30.1 in ESE 3.8 mph 3.8 mph 57 % 0 in
16:51 59.4 °F 44.1 °F 30.1 in East 5.8 mph 5.8 mph 57 % 0 in
16:56 59 °F 44.2 °F 30.1 in ENE 3.6 mph 3.6 mph 58 % 0 in
17:01 58.8 °F 44.1 °F 30.1 in ENE 4.6 mph 4.6 mph 58 % 0 in
17:06 58.5 °F 44.2 °F 30.1 in NNE 4.6 mph 4.6 mph 59 % 0 in
17:11 58.1 °F 44.2 °F 30.1 in ESE 4.6 mph 4.6 mph 60 % 0 in
17:16 57.9 °F 44.4 °F 30.1 in NNE 4.6 mph 4.6 mph 61 % 0 in
17:21 57.7 °F 44.4 °F 30.1 in NW 2 mph 2 mph 61 % 0 in
17:26 57.6 °F 44.2 °F 30.1 in NNW 4.6 mph 4.6 mph 61 % 0 in
17:31 57.7 °F 44.8 °F 30.1 in East 4.6 mph 4.6 mph 62 % 0 in
17:36 58.1 °F 45.1 °F 30.1 in ENE 5.8 mph 5.8 mph 62 % 0 in
17:41 57.9 °F 45 °F 30.1 in NE 2.3 mph   62 % 0 in
17:46 57.6 °F 45.1 °F 30.1 in East 3.5 mph 3.5 mph 63 % 0 in
17:51 57.6 °F 44.6 °F 30.1 in WNW 2.3 mph 2.3 mph 62 % 0 in
17:56 57.2 °F 44.8 °F 30.1 in North 1.2 mph 1.2 mph 63 % 0 in
18:01 57.2 °F 44.8 °F 30.1 in NW 2.3 mph 2.3 mph 63 % 0 in
18:06 56.8 °F 44.4 °F 30.1 in NNE 1.2 mph 1.2 mph 63 % 0 in
18:11 56.5 °F 44.4 °F 30.1 in ENE 1.2 mph 1.2 mph 64 % 0 in
18:16 56.1 °F 44.1 °F 30.2 in SW 2.3 mph 2.3 mph 64 % 0 in
18:21 55.6 °F 43.5 °F 30.2 in WSW 2.3 mph 2.6 mph 64 % 0 in
18:25 46.4 °F 28.8 °F 30.2 in SW 1 mph 2 mph 50 % 0 in
18:26 55.4 °F 43.3 °F 30.2 in West 1.4 mph 1.4 mph 64 % 0 in
18:31 55.4 °F 43.9 °F 30.2 in West 1.2 mph 1.2 mph 65 % 0 in
18:33 55.4 °F 43.9 °F 30.2 in West 1.6 mph 1.6 mph 65 % 0 in
18:35 45.9 °F 28.2 °F 30.2 in Calm     50 % 0 in
18:43 55.4 °F 43.9 °F 30.2 in West 2.3 mph 2.3 mph 65 % 0 in
18:45 45.7 °F 28 °F 30.2 in Calm   2 mph 50 % 0 in
18:48 55.2 °F 43.7 °F 30.2 in WNW 2.4 mph 2.4 mph 65 % 0 in
18:53 55.4 °F 43.9 °F 30.2 in WNW 2.3 mph 2.3 mph 65 % 0 in
18:55 45.9 °F 28.2 °F 30.3 in Calm   3 mph 50 % 0 in
18:58 55.6 °F 44.1 °F 30.2 in West 2.6 mph 2.6 mph 65 % 0 in
19:03 55.6 °F 44.4 °F 30.2 in WSW 1.2 mph 1.2 mph 66 % 0 in
19:05 45.7 °F 28 °F 30.2 in WSW 1 mph 2 mph 50 % 0 in
19:08 55.4 °F 44.2 °F 30.2 in West 1.2 mph   66 % 0 in
19:13 55.4 °F 44.2 °F 30.2 in SW 1.2 mph   66 % 0 in
19:15 45.3 °F 27.9 °F 30.2 in WSW 1 mph 2 mph 50 % 0 in
19:18 55.4 °F 44.2 °F 30.2 in South 1.6 mph   66 % 0 in
19:23 55.2 °F 43.7 °F 30.2 in SW 2.3 mph 2.3 mph 65 % 0 in
19:25 45.1 °F 27.7 °F 30.3 in WSW 1 mph 2 mph 50 % 0 in
19:28 55.2 °F 43.7 °F 30.2 in SW 2.3 mph 2.3 mph 65 % 0 in
19:33 55.2 °F 43.7 °F 30.2 in WSW 4.3 mph 4.3 mph 65 % 0 in
19:35 45.1 °F 27.7 °F 30.2 in WSW 2 mph 2 mph 50 % 0 in
19:38 55.4 °F 43.9 °F 30.2 in WSW 3.5 mph 3.5 mph 65 % 0 in
19:43 55.4 °F 43.9 °F 30.2 in SSW 2.4 mph 2.4 mph 65 % 0 in
19:45 45.1 °F 27.7 °F 30.2 in Calm   2 mph 50 % 0 in
19:48 55.6 °F 44.1 °F 30.2 in SW 3.5 mph 3.5 mph 65 % 0 in
19:53 55.6 °F 44.1 °F 30.2 in West 4.6 mph 4.6 mph 65 % 0 in
19:55 45 °F 27.3 °F 30.2 in Calm   2 mph 50 % 0 in
19:58 55.4 °F 43.3 °F 30.2 in West 2.3 mph 2.3 mph 64 % 0 in
20:03 55.4 °F 43.3 °F 30.2 in West 2.3 mph 2.3 mph 64 % 0 in
20:05 44.8 °F 27.3 °F 30.3 in WSW 1 mph 1 mph 50 % 0 in
20:08 55.2 °F 42.4 °F 30.2 in SW 1.2 mph   62 % 0 in
20:13 55 °F 41.7 °F 30.2 in West 4.6 mph 4.6 mph 61 % 0 in
20:15 44.8 °F 27.3 °F 30.3 in Calm   1 mph 50 % 0 in
20:18 55 °F 41.4 °F 30.2 in West 5.4 mph 5.4 mph 60 % 0 in
20:23 55 °F 40.1 °F 30.2 in WSW 5.8 mph 5.8 mph 57 % 0 in
20:25 44.8 °F 27.3 °F 30.3 in Calm   2 mph 50 % 0 in
20:28 55 °F 39.2 °F 30.2 in West 6.9 mph 6.9 mph 55 % 0 in
20:33 54.7 °F 38.8 °F 30.2 in WSW 4.6 mph 4.6 mph 55 % 0 in
20:35 44.6 °F 27.1 °F 30.3 in West 1 mph 2 mph 50 % 0 in
20:38 54.1 °F 37.8 °F 30.2 in SW 3.5 mph 3.5 mph 54 % 0 in
20:43 54.3 °F 37.9 °F 30.2 in West 7.4 mph 7.4 mph 54 % 0 in
20:45 44.4 °F 27 °F 30.3 in Calm   2 mph 50 % 0 in
20:48 54.5 °F 37.8 °F 30.2 in NW 5.8 mph 5.8 mph 53 % 0 in
20:53 54.3 °F 37 °F 30.2 in WSW 6.9 mph 6.9 mph 52 % 0 in
20:55 44.6 °F 27.1 °F 30.3 in Calm   2 mph 50 % 0 in
20:58 54.1 °F 36.9 °F 30.2 in West 3.5 mph 4 mph 52 % 0 in
21:03 54 °F 36.7 °F 30.2 in West 5.8 mph 5.8 mph 52 % 0 in
21:05 44.6 °F 27.1 °F 30.3 in Calm   2 mph 50 % 0 in
21:08 54 °F 36.7 °F 30.2 in West 5.8 mph 5.8 mph 52 % 0 in
21:15 44.6 °F 27.1 °F 30.3 in West 1 mph 3 mph 50 % 0 in
21:18 53.6 °F 36 °F 30.2 in NNW 5.8 mph 5.8 mph 51 % 0 in
21:23 53.4 °F 35.8 °F 30.2 in SW 5.8 mph 5.8 mph 51 % 0 in
21:25 44.6 °F 27.1 °F 30.3 in Calm   2 mph 50 % 0 in
21:29 53.1 °F 35.4 °F 30.2 in West 5.8 mph 5.8 mph 51 % 0 in
21:30 53.1 °F 35.4 °F 30.2 in WSW 13.8 mph 13.8 mph 51 % 0 in
21:35 53.1 °F 34.9 °F 30.2 in WNW 4.6 mph 4.6 mph 50 % 0 in
21:40 52.7 °F 35.1 °F 30.2 in West 4.7 mph 4.7 mph 51 % 0 in
21:45 52.5 °F 34.3 °F 30.2 in West 3.5 mph 3.6 mph 50 % 0 in
21:50 52.3 °F 34.2 °F 30.2 in SSW 9.2 mph 9.2 mph 50 % 0 in
21:55 52.2 °F 34.2 °F 30.2 in WSW 8.1 mph 8.1 mph 50 % 0 in
22:00 52 °F 34 °F 30.2 in West 4.6 mph 4.6 mph 50 % 0 in
22:05 52 °F 34 °F 30.2 in West 6.9 mph 6.9 mph 50 % 0 in
22:10 51.8 °F 33.6 °F 30.2 in WSW 6.9 mph 6.9 mph 50 % 0 in
22:15 51.4 °F 32.9 °F 30.2 in West 5.8 mph 5.8 mph 49 % 0 in
22:20 51.1 °F 32.5 °F 30.2 in SW 3.8 mph 3.8 mph 49 % 0 in
22:25 50.9 °F 32.4 °F 30.2 in SW 4.6 mph 4.6 mph 49 % 0 in
22:30 50.5 °F 32.2 °F 30.2 in West 4.6 mph 4.6 mph 49 % 0 in
22:35 50.5 °F 32.2 °F 30.2 in West 4.6 mph 4.6 mph 49 % 0 in
22:40 50.4 °F 31.8 °F 30.2 in SW 6 mph 6 mph 49 % 0 in
22:45 50.2 °F 31.6 °F 30.2 in SW 3.5 mph 3.5 mph 49 % 0 in
22:50 49.8 °F 31.5 °F 30.2 in SW 3.5 mph 3.5 mph 49 % 0 in
22:55 49.6 °F 31.3 °F 30.2 in WSW 3.5 mph 3.5 mph 49 % 0 in
22:56 49.6 °F 31.3 °F 30.2 in WSW 3.5 mph 3.5 mph 49 % 0 in
23:01 49.3 °F 30.9 °F 30.2 in WSW 3.5 mph 3.5 mph 49 % 0 in
23:05 41.9 °F 25.2 °F 30.3 in NW 1 mph 1 mph 51 % 0 in
23:06 48.9 °F 30.6 °F 30.2 in SW 1.2 mph   49 % 0 in
23:11 48.7 °F 30.4 °F 30.2 in SW 2.3 mph   49 % 0 in
23:15 41.7 °F 25 °F 30.3 in NNW 1 mph 2 mph 51 % 0 in
23:16 48.6 °F 30.2 °F 30.2 in WNW 1.6 mph 1.6 mph 49 % 0 in
23:21 48.4 °F 30 °F 30.2 in SSW 2.3 mph 2.3 mph 49 % 0 in
23:25 42.1 °F 25.2 °F 30.3 in North 1 mph 4 mph 51 % 0 in
23:26 48.2 °F 29.8 °F 30.2 in West 2.3 mph 2.3 mph 49 % 0 in
23:31 48 °F 29.7 °F 30.2 in West 2.4 mph 2.4 mph 49 % 0 in
23:35 41.9 °F 25.5 °F 30.3 in NNE 1 mph 3 mph 52 % 0 in
23:36 47.7 °F 29.5 °F 30.2 in WSW 2.3 mph 2.3 mph 49 % 0 in
23:41 47.5 °F 29.3 °F 30.2 in WSW 2.4 mph 2.4 mph 49 % 0 in
23:45 41.7 °F 25.3 °F 30.3 in NNE 1 mph 2 mph 52 % 0 in
23:46 47.5 °F 29.7 °F 30.2 in WSW 3.5 mph 3.5 mph 50 % 0 in
23:51 47.5 °F 29.7 °F 30.2 in West 1.2 mph   50 % 0 in
23:55 41.5 °F 25.2 °F 30.3 in North 1 mph 5 mph 52 % 0 in
23:56 47.1 °F 29.5 °F 30.2 in SW 2.3 mph 2.3 mph 50 % 0 in
Meteo Sesrovires
Elogis d' Weather Underground - 3.75 mb

Guio original per  Jim McMurry - jmcmurry@mwt.net Adaptat per a la plantilla per  Wim van der Kuil - Leuven-Template.eu

Trobareu la nostra informacio del temps tambe a:

Weather Underground

AWEKAS